createdAt,value
2023-04-16T00:01:12.944Z,3.40
2023-04-16T00:04:36.829Z,4.93
2023-04-16T00:08:00.501Z,5.10
2023-04-16T00:11:24.455Z,4.67
2023-04-16T00:14:49.610Z,4.80
2023-04-16T00:18:13.444Z,4.50
2023-04-16T00:21:36.913Z,5.00
2023-04-16T00:25:00.312Z,4.80
2023-04-16T00:28:24.092Z,4.50
2023-04-16T00:31:49.370Z,4.20
2023-04-16T00:35:12.892Z,3.50
2023-04-16T00:38:36.794Z,4.73
2023-04-16T00:42:00.696Z,4.73
2023-04-16T00:45:24.523Z,4.10
2023-04-16T00:48:52.143Z,4.03
2023-04-16T00:52:16.378Z,3.37
2023-04-16T00:55:41.530Z,3.67
2023-04-16T00:59:05.504Z,4.40
2023-04-16T01:02:29.098Z,4.70
2023-04-16T01:05:54.378Z,4.70
2023-04-16T01:09:18.685Z,4.20
2023-04-16T01:12:42.272Z,3.40
2023-04-16T01:16:07.099Z,5.20
2023-04-16T01:19:31.551Z,3.70
2023-04-16T01:22:56.540Z,4.20
2023-04-16T01:26:20.057Z,4.47
2023-04-16T01:29:43.881Z,3.57
2023-04-16T01:33:08.891Z,4.50
2023-04-16T01:36:32.730Z,3.30
2023-04-16T01:39:57.930Z,3.20
2023-04-16T01:43:21.789Z,3.10
2023-04-16T01:46:46.274Z,3.33
2023-04-16T01:50:11.502Z,3.40
2023-04-16T01:53:37.003Z,3.93
2023-04-16T01:57:03.678Z,3.10
2023-04-16T02:00:27.378Z,2.83
2023-04-16T02:03:52.322Z,3.40
2023-04-16T02:07:17.096Z,3.20
2023-04-16T02:10:40.529Z,2.50
2023-04-16T02:14:06.367Z,3.63
2023-04-16T02:17:30.249Z,3.03
2023-04-16T02:21:22.684Z,2.90
2023-04-16T02:24:46.978Z,3.07
2023-04-16T02:28:11.617Z,2.70
2023-04-16T02:31:39.358Z,3.87
2023-04-16T02:35:04.344Z,3.90
2023-04-16T02:38:28.235Z,3.37
2023-04-16T02:41:52.392Z,3.73
2023-04-16T02:45:17.262Z,3.30
2023-04-16T02:48:42.383Z,4.20
2023-04-16T02:52:06.524Z,4.60
2023-04-16T02:55:30.382Z,3.70
2023-04-16T02:58:54.164Z,3.77
2023-04-16T03:02:18.056Z,4.00
2023-04-16T03:05:43.212Z,4.63
2023-04-16T03:09:07.487Z,4.13
2023-04-16T03:12:31.540Z,4.00
2023-04-16T03:15:55.709Z,4.87
2023-04-16T03:19:19.513Z,3.27
2023-04-16T03:22:44.672Z,3.90
2023-04-16T03:26:09.929Z,4.23
2023-04-16T03:29:33.812Z,4.87
2023-04-16T03:32:57.727Z,4.27
2023-04-16T03:36:22.768Z,4.20
2023-04-16T03:39:47.937Z,4.73
2023-04-16T03:43:12.149Z,5.90
2023-04-16T03:46:36.461Z,5.37
2023-04-16T03:50:00.779Z,5.40
2023-04-16T03:53:25.638Z,5.00
2023-04-16T03:56:51.982Z,5.40
2023-04-16T04:00:15.718Z,4.17
2023-04-16T04:03:51.530Z,3.67
2023-04-16T04:07:16.917Z,5.53
2023-04-16T04:10:40.966Z,5.03
2023-04-16T04:14:09.042Z,5.50
2023-04-16T04:17:32.626Z,4.43
2023-04-16T04:20:56.150Z,6.20
2023-04-16T04:24:23.942Z,6.23
2023-04-16T04:27:47.817Z,5.80
2023-04-16T04:31:12.690Z,6.20
2023-04-16T04:34:37.512Z,6.30
2023-04-16T04:38:04.326Z,6.40
2023-04-16T04:41:28.167Z,5.70
2023-04-16T04:44:52.031Z,6.50
2023-04-16T04:48:17.490Z,6.27
2023-04-16T04:51:41.897Z,5.37
2023-04-16T04:55:06.166Z,4.87
2023-04-16T04:58:29.619Z,6.13
2023-04-16T05:01:54.012Z,5.93
2023-04-16T05:05:19.228Z,5.63
2023-04-16T05:08:43.150Z,6.13
2023-04-16T05:12:07.194Z,5.50
2023-04-16T05:15:31.191Z,5.60
2023-04-16T05:18:56.038Z,3.97
2023-04-16T05:22:20.787Z,4.70
2023-04-16T05:25:44.489Z,5.40
2023-04-16T05:29:08.388Z,6.43
2023-04-16T05:32:32.377Z,6.80
2023-04-16T05:35:56.164Z,7.30
2023-04-16T05:39:21.347Z,7.93
2023-04-16T05:42:45.118Z,5.83
2023-04-16T05:46:08.556Z,8.60
2023-04-16T05:49:32.358Z,8.77
2023-04-16T05:52:56.330Z,7.40
2023-04-16T05:56:21.834Z,10.33
2023-04-16T05:59:45.334Z,8.63
2023-04-16T06:03:09.356Z,8.70
2023-04-16T06:06:33.364Z,10.37
2023-04-16T06:09:57.218Z,10.87
2023-04-16T06:13:22.118Z,10.20
2023-04-16T06:16:46.035Z,9.30
2023-04-16T06:20:11.223Z,11.53
2023-04-16T06:23:35.039Z,10.93
2023-04-16T06:26:58.831Z,9.57
2023-04-16T06:30:24.034Z,9.43
2023-04-16T06:33:47.853Z,11.87
2023-04-16T06:37:11.745Z,11.30
2023-04-16T06:40:37.002Z,9.43
2023-04-16T06:44:00.445Z,9.23
2023-04-16T06:47:25.472Z,10.53
2023-04-16T06:50:49.026Z,9.70
2023-04-16T06:54:12.843Z,9.80
2023-04-16T06:57:37.661Z,10.83
2023-04-16T07:01:02.685Z,10.40
2023-04-16T07:04:28.151Z,13.10
2023-04-16T07:07:51.982Z,11.20
2023-04-16T07:11:16.320Z,11.33
2023-04-16T07:14:40.375Z,11.83
2023-04-16T07:18:04.451Z,11.23
2023-04-16T07:21:29.388Z,14.10
2023-04-16T07:24:53.250Z,11.07
2023-04-16T07:28:17.617Z,10.47
2023-04-16T07:31:41.364Z,9.70
2023-04-16T07:35:05.454Z,9.20
2023-04-16T07:38:30.383Z,11.40
2023-04-16T07:41:54.334Z,12.17
2023-04-16T07:45:19.780Z,10.77
2023-04-16T07:48:44.623Z,11.50
2023-04-16T07:52:08.579Z,11.07
2023-04-16T07:55:33.736Z,11.77
2023-04-16T07:59:02.879Z,11.53
2023-04-16T08:02:32.389Z,10.23
2023-04-16T08:05:56.368Z,9.23
2023-04-16T08:09:21.572Z,9.37
2023-04-16T08:12:47.230Z,10.83
2023-04-16T08:16:11.075Z,9.97
2023-04-16T08:19:35.064Z,8.60
2023-04-16T08:22:58.611Z,8.57
2023-04-16T08:26:22.035Z,7.63
2023-04-16T08:29:47.073Z,8.97
2023-04-16T08:33:10.759Z,8.77
2023-04-16T08:36:34.716Z,9.93
2023-04-16T08:39:58.496Z,9.33
2023-04-16T08:43:24.771Z,9.60
2023-04-16T08:46:50.270Z,9.90
2023-04-16T08:50:16.980Z,9.10
2023-04-16T08:53:52.192Z,9.90
2023-04-16T08:57:20.483Z,10.90
2023-04-16T09:00:46.124Z,9.10
2023-04-16T09:04:11.836Z,8.90
2023-04-16T09:07:36.175Z,8.40
2023-04-16T09:11:00.535Z,8.03
2023-04-16T09:14:24.295Z,8.60
2023-04-16T09:17:48.230Z,8.90
2023-04-16T09:21:13.889Z,9.10
2023-04-16T09:24:38.425Z,9.43
2023-04-16T09:28:02.309Z,8.70
2023-04-16T09:31:26.129Z,7.93
2023-04-16T09:34:57.314Z,10.50
2023-04-16T09:38:22.678Z,7.13
2023-04-16T09:41:47.963Z,10.70
2023-04-16T09:45:12.543Z,7.17
2023-04-16T09:48:36.419Z,7.13
2023-04-16T09:52:00.252Z,8.50
2023-04-16T09:55:30.338Z,9.30
2023-04-16T09:59:00.541Z,10.30
2023-04-16T10:02:28.499Z,10.97
2023-04-16T10:05:55.293Z,10.97
2023-04-16T10:09:19.176Z,9.47
2023-04-16T10:12:44.492Z,9.27
2023-04-16T10:16:09.514Z,9.33
2023-04-16T10:19:35.122Z,11.10
2023-04-16T10:22:59.736Z,9.93
2023-04-16T10:26:23.650Z,9.47
2023-04-16T10:29:50.621Z,9.27
2023-04-16T10:33:15.256Z,9.17
2023-04-16T10:36:40.048Z,9.80
2023-04-16T10:40:22.658Z,10.23
2023-04-16T10:43:47.662Z,10.30
2023-04-16T10:47:14.639Z,8.70
2023-04-16T10:50:39.610Z,7.47
2023-04-16T10:54:20.264Z,10.43
2023-04-16T10:57:43.861Z,7.03
2023-04-16T11:01:14.569Z,8.80
2023-04-16T11:04:43.415Z,9.30
2023-04-16T11:08:16.418Z,9.73
2023-04-16T11:11:40.516Z,6.50
2023-04-16T11:15:06.073Z,7.40
2023-04-16T11:18:29.951Z,6.90
2023-04-16T11:21:55.679Z,5.90
2023-04-16T11:25:23.109Z,7.00
2023-04-16T11:28:47.015Z,5.77
2023-04-16T11:32:11.165Z,5.43
2023-04-16T11:35:35.635Z,6.00
2023-04-16T11:39:04.566Z,5.90
2023-04-16T11:42:29.418Z,4.53
2023-04-16T11:46:01.625Z,5.23
2023-04-16T11:49:30.256Z,4.53
2023-04-16T11:52:56.435Z,5.17
2023-04-16T11:56:32.247Z,4.60
2023-04-16T12:00:01.812Z,3.80
2023-04-16T12:03:44.304Z,3.87
2023-04-16T12:07:10.528Z,3.97
2023-04-16T12:10:35.983Z,4.53
2023-04-16T12:14:11.443Z,5.13
2023-04-16T12:17:36.494Z,3.70
2023-04-16T12:21:01.726Z,3.20
2023-04-16T12:24:27.521Z,3.80
2023-04-16T12:27:54.235Z,2.93
2023-04-16T12:31:20.311Z,2.73
2023-04-16T12:34:52.376Z,3.00
2023-04-16T12:38:16.885Z,2.70
2023-04-16T12:41:42.137Z,3.20
2023-04-16T12:45:07.022Z,3.57
2023-04-16T12:48:32.549Z,3.03
2023-04-16T12:51:56.356Z,2.57
2023-04-16T12:55:20.760Z,3.10
2023-04-16T12:58:44.551Z,2.93
2023-04-16T13:02:08.727Z,3.50
2023-04-16T13:05:33.626Z,2.80
2023-04-16T13:08:58.080Z,2.70
2023-04-16T13:12:21.944Z,3.57
2023-04-16T13:15:45.885Z,2.20
2023-04-16T13:19:10.051Z,3.67
2023-04-16T13:22:35.673Z,3.00
2023-04-16T13:25:59.525Z,3.37
2023-04-16T13:29:23.483Z,4.23
2023-04-16T13:32:47.283Z,3.07
2023-04-16T13:36:10.926Z,3.80
2023-04-16T13:39:36.003Z,3.63
2023-04-16T13:42:59.941Z,3.73
2023-04-16T13:46:24.407Z,4.17
2023-04-16T13:49:48.393Z,3.20
2023-04-16T13:53:12.547Z,3.10
2023-04-16T13:56:37.540Z,3.77
2023-04-16T14:00:01.409Z,4.50
2023-04-16T14:03:27.737Z,3.53
2023-04-16T14:06:51.595Z,4.50
2023-04-16T14:10:15.557Z,3.37
2023-04-16T14:13:40.859Z,3.80
2023-04-16T14:17:04.666Z,3.73
2023-04-16T14:20:28.451Z,3.87
2023-04-16T14:23:52.381Z,4.60
2023-04-16T14:27:16.993Z,4.20
2023-04-16T14:30:42.262Z,5.03
2023-04-16T14:34:06.129Z,4.67
2023-04-16T14:37:30.047Z,3.93
2023-04-16T14:40:53.838Z,4.30
2023-04-16T14:44:17.642Z,4.27
2023-04-16T14:47:46.987Z,6.20
2023-04-16T14:51:10.994Z,5.23
2023-04-16T14:54:34.896Z,7.57
2023-04-16T14:57:59.559Z,6.97
2023-04-16T15:01:23.395Z,4.70
2023-04-16T15:04:48.613Z,6.20
2023-04-16T15:08:12.383Z,5.67
2023-04-16T15:11:36.131Z,5.90
2023-04-16T15:15:00.370Z,5.50
2023-04-16T15:18:24.415Z,5.57
2023-04-16T15:21:49.282Z,5.53
2023-04-16T15:25:13.196Z,5.73
2023-04-16T15:28:36.982Z,6.13
2023-04-16T15:32:00.586Z,6.17
2023-04-16T15:35:24.382Z,5.77
2023-04-16T15:38:49.564Z,7.37
2023-04-16T15:42:13.671Z,7.40
2023-04-16T15:45:37.535Z,8.10
2023-04-16T15:49:01.316Z,8.07
2023-04-16T15:52:25.288Z,5.93
2023-04-16T15:55:52.763Z,5.53
2023-04-16T15:59:16.219Z,7.50
2023-04-16T16:02:40.396Z,7.67
2023-04-16T16:06:04.941Z,6.07
2023-04-16T16:09:28.837Z,6.70
2023-04-16T16:12:53.770Z,6.83
2023-04-16T16:16:17.653Z,7.30
2023-04-16T16:19:41.224Z,7.37
2023-04-16T16:23:05.230Z,5.90
2023-04-16T16:26:29.081Z,6.07
2023-04-16T16:29:54.252Z,9.33
2023-04-16T16:33:17.960Z,8.00
2023-04-16T16:36:41.770Z,9.20
2023-04-16T16:40:06.187Z,6.10
2023-04-16T16:43:30.067Z,5.43
2023-04-16T16:46:55.075Z,5.60
2023-04-16T16:50:19.037Z,7.00
2023-04-16T16:53:42.846Z,6.60
2023-04-16T16:57:06.745Z,8.23
2023-04-16T17:00:30.602Z,10.80
2023-04-16T17:03:56.205Z,8.37
2023-04-16T17:07:20.844Z,8.40
2023-04-16T17:10:44.699Z,8.17
2023-04-16T17:14:08.229Z,8.23
2023-04-16T17:17:32.985Z,12.00
2023-04-16T17:20:57.962Z,12.83
2023-04-16T17:24:21.802Z,9.53
2023-04-16T17:27:45.862Z,9.10
2023-04-16T17:31:11.388Z,8.80
2023-04-16T17:34:35.700Z,7.70
2023-04-16T17:38:01.178Z,6.33
2023-04-16T17:41:25.207Z,7.30
2023-04-16T17:44:49.026Z,7.80
2023-04-16T17:48:12.781Z,8.00
2023-04-16T17:51:36.292Z,6.93
2023-04-16T17:55:01.640Z,7.90
2023-04-16T17:58:26.936Z,10.00
2023-04-16T18:01:50.897Z,9.87
2023-04-16T18:05:15.244Z,8.93
2023-04-16T18:08:39.013Z,7.97
2023-04-16T18:12:04.203Z,8.10
2023-04-16T18:15:28.100Z,7.27
2023-04-16T18:18:52.016Z,8.57
2023-04-16T18:22:16.404Z,10.20
2023-04-16T18:25:40.457Z,8.07
2023-04-16T18:29:05.716Z,6.50
2023-04-16T18:32:31.302Z,10.52
2023-04-16T18:35:55.585Z,9.23
2023-04-16T18:39:19.778Z,9.63
2023-04-16T18:42:44.053Z,8.83
2023-04-16T18:46:09.617Z,7.57
2023-04-16T18:49:33.761Z,9.90
2023-04-16T18:52:57.955Z,8.07
2023-04-16T18:56:22.056Z,10.33
2023-04-16T18:59:46.264Z,7.73
2023-04-16T19:03:11.648Z,7.43
2023-04-16T19:06:36.483Z,7.50
2023-04-16T19:10:02.529Z,6.07
2023-04-16T19:13:26.490Z,7.67
2023-04-16T19:16:50.723Z,5.90
2023-04-16T19:20:16.041Z,6.13
2023-04-16T19:23:40.122Z,7.93
2023-04-16T19:27:04.307Z,6.57
2023-04-16T19:30:28.983Z,10.63
2023-04-16T19:33:52.969Z,8.83
2023-04-16T19:37:18.325Z,9.50
2023-04-16T19:40:44.693Z,11.60
2023-04-16T19:44:08.845Z,8.90
2023-04-16T19:47:33.537Z,9.27
2023-04-16T19:50:57.319Z,7.50
2023-04-16T19:54:22.987Z,6.07
2023-04-16T19:57:48.850Z,7.00
2023-04-16T20:01:13.215Z,7.83
2023-04-16T20:04:37.251Z,8.40
2023-04-16T20:08:00.820Z,7.30
2023-04-16T20:11:25.901Z,6.73
2023-04-16T20:14:49.562Z,6.87
2023-04-16T20:18:13.569Z,8.03
2023-04-16T20:21:37.530Z,8.77
2023-04-16T20:25:01.357Z,8.10
2023-04-16T20:28:26.398Z,7.87
2023-04-16T20:31:50.388Z,7.60
2023-04-16T20:35:14.240Z,6.70
2023-04-16T20:38:38.881Z,6.83
2023-04-16T20:42:04.193Z,7.07
2023-04-16T20:45:32.348Z,7.20
2023-04-16T20:48:56.158Z,5.53
2023-04-16T20:52:19.724Z,6.37
2023-04-16T20:55:44.479Z,5.97
2023-04-16T20:59:07.903Z,6.10
2023-04-16T21:02:32.874Z,5.33
2023-04-16T21:05:56.922Z,5.87
2023-04-16T21:09:20.847Z,4.10
2023-04-16T21:12:45.002Z,4.40
2023-04-16T21:16:09.851Z,5.70
2023-04-16T21:19:35.080Z,4.27
2023-04-16T21:22:59.106Z,3.80
2023-04-16T21:26:22.901Z,4.20
2023-04-16T21:29:46.299Z,4.40
2023-04-16T21:33:11.852Z,4.30
2023-04-16T21:36:36.682Z,3.80
2023-04-16T21:40:00.708Z,4.40
2023-04-16T21:43:25.072Z,3.87
2023-04-16T21:46:49.144Z,4.97
2023-04-16T21:50:13.940Z,5.20
2023-04-16T21:53:39.098Z,4.77
2023-04-16T21:57:03.110Z,7.03
2023-04-16T22:00:27.029Z,4.20
2023-04-16T22:03:52.006Z,4.67
2023-04-16T22:07:16.850Z,4.97
2023-04-16T22:10:41.953Z,3.90
2023-04-16T22:14:08.115Z,4.03
2023-04-16T22:17:31.792Z,3.60
2023-04-16T22:20:56.474Z,3.73
2023-04-16T22:24:20.055Z,3.47
2023-04-16T22:27:45.465Z,3.33
2023-04-16T22:31:10.101Z,3.47
2023-04-16T22:34:33.962Z,3.50
2023-04-16T22:37:57.843Z,3.23
2023-04-16T22:41:22.902Z,3.60
2023-04-16T22:44:47.683Z,4.33
2023-04-16T22:48:11.823Z,4.47
2023-04-16T22:51:35.712Z,3.60
2023-04-16T22:54:59.542Z,4.07
2023-04-16T22:58:23.384Z,3.63
2023-04-16T23:01:48.363Z,3.10
2023-04-16T23:05:12.499Z,3.17
2023-04-16T23:08:36.332Z,3.03
2023-04-16T23:12:00.153Z,3.60
2023-04-16T23:15:23.961Z,3.60
2023-04-16T23:18:48.813Z,3.70
2023-04-16T23:22:12.729Z,3.47
2023-04-16T23:25:36.561Z,3.93
2023-04-16T23:29:00.332Z,4.57
2023-04-16T23:32:23.887Z,3.93
2023-04-16T23:35:49.251Z,3.70
2023-04-16T23:39:13.499Z,3.30
2023-04-16T23:42:37.465Z,3.03
2023-04-16T23:46:02.118Z,2.90
2023-04-16T23:49:26.240Z,2.93
2023-04-16T23:52:51.248Z,3.57
2023-04-16T23:56:15.476Z,3.40
2023-04-16T23:59:39.330Z,3.30
